sensor_id;sensor_type;location;lat;lon;timestamp;pressure;altitude;pressure_sealevel;temperature;humidity
71457;BME280;59263;48.160;11.752;2023-01-27T00:00:35;95973.69;;;-1.84;100.00
71457;BME280;59263;48.160;11.752;2023-01-27T00:03:00;95969.56;;;-1.87;100.00
71457;BME280;59263;48.160;11.752;2023-01-27T00:05:26;95964.47;;;-1.87;100.00
71457;BME280;59263;48.160;11.752;2023-01-27T00:07:51;95946.75;;;-2.07;100.00
71457;BME280;59263;48.160;11.752;2023-01-27T00:10:18;95957.06;;;-2.12;100.00
71457;BME280;59263;48.160;11.752;2023-01-27T00:12:46;95958.66;;;-2.09;100.00
71457;BME280;59263;48.160;11.752;2023-01-27T00:15:31;95940.53;;;-2.21;100.00
71457;BME280;59263;48.160;11.752;2023-01-27T00:17:57;95939.63;;;-2.20;100.00
71457;BME280;59263;48.160;11.752;2023-01-27T00:20:23;95942.06;;;-2.16;100.00
71457;BME280;59263;48.160;11.752;2023-01-27T00:23:26;95955.22;;;-2.08;100.00
71457;BME280;59263;48.160;11.752;2023-01-27T00:26:15;95965.13;;;-2.02;100.00
71457;BME280;59263;48.160;11.752;2023-01-27T00:28:41;95954.34;;;-2.07;100.00
71457;BME280;59263;48.160;11.752;2023-01-27T00:31:08;95952.31;;;-1.99;100.00
71457;BME280;59263;48.160;11.752;2023-01-27T00:33:53;95947.06;;;-1.95;100.00
71457;BME280;59263;48.160;11.752;2023-01-27T00:36:21;95949.50;;;-1.93;100.00
71457;BME280;59263;48.160;11.752;2023-01-27T00:38:47;95944.59;;;-1.96;100.00
71457;BME280;59263;48.160;11.752;2023-01-27T00:41:12;95943.00;;;-1.99;100.00
71457;BME280;59263;48.160;11.752;2023-01-27T00:43:48;95948.00;;;-1.97;100.00
71457;BME280;59263;48.160;11.752;2023-01-27T00:46:14;95946.34;;;-1.98;100.00
71457;BME280;59263;48.160;11.752;2023-01-27T00:48:40;95949.50;;;-1.93;100.00
71457;BME280;59263;48.160;11.752;2023-01-27T00:51:05;95951.44;;;-1.98;100.00
71457;BME280;59263;48.160;11.752;2023-01-27T00:53:31;95946.34;;;-1.98;100.00
71457;BME280;59263;48.160;11.752;2023-01-27T00:55:57;95945.75;;;-2.03;100.00
71457;BME280;59263;48.160;11.752;2023-01-27T00:58:23;95954.75;;;-1.96;100.00
71457;BME280;59263;48.160;11.752;2023-01-27T01:00:49;95938.25;;;-2.06;100.00
71457;BME280;59263;48.160;11.752;2023-01-27T01:03:14;95950.16;;;-2.08;100.00
71457;BME280;59263;48.160;11.752;2023-01-27T01:05:40;95960.94;;;-2.03;100.00
71457;BME280;59263;48.160;11.752;2023-01-27T01:08:05;95966.03;;;-2.03;100.00
71457;BME280;59263;48.160;11.752;2023-01-27T01:10:30;95963.38;;;-2.00;100.00
71457;BME280;59263;48.160;11.752;2023-01-27T01:12:56;95934.25;;;-2.12;100.00
71457;BME280;59263;48.160;11.752;2023-01-27T01:15:21;95957.41;;;-1.99;100.00
71457;BME280;59263;48.160;11.752;2023-01-27T01:17:47;95957.59;;;-2.04;100.00
71457;BME280;59263;48.160;11.752;2023-01-27T01:20:13;95965.25;;;-2.05;100.00
71457;BME280;59263;48.160;11.752;2023-01-27T01:22:38;95969.28;;;-2.01;100.00
71457;BME280;59263;48.160;11.752;2023-01-27T01:25:03;95944.69;;;-2.20;100.00
71457;BME280;59263;48.160;11.752;2023-01-27T01:27:29;95953.34;;;-2.03;100.00
71457;BME280;59263;48.160;11.752;2023-01-27T01:29:54;95961.06;;;-2.06;100.00
71457;BME280;59263;48.160;11.752;2023-01-27T01:32:20;95969.19;;;-1.98;100.00
71457;BME280;59263;48.160;11.752;2023-01-27T01:34:45;95948.19;;;-2.02;100.00
71457;BME280;59263;48.160;11.752;2023-01-27T01:37:10;95967.09;;;-1.88;100.00
71457;BME280;59263;48.160;11.752;2023-01-27T01:39:36;95959.66;;;-1.93;100.00
71457;BME280;59263;48.160;11.752;2023-01-27T01:42:01;95932.16;;;-2.02;100.00
71457;BME280;59263;48.160;11.752;2023-01-27T01:44:29;95940.84;;;-2.08;100.00
71457;BME280;59263;48.160;11.752;2023-01-27T01:46:55;95955.88;;;-2.03;100.00
71457;BME280;59263;48.160;11.752;2023-01-27T01:49:24;95949.66;;;-1.96;100.00
71457;BME280;59263;48.160;11.752;2023-01-27T01:51:54;95938.75;;;-1.98;100.00
71457;BME280;59263;48.160;11.752;2023-01-27T01:54:28;95933.06;;;-2.03;100.00
71457;BME280;59263;48.160;11.752;2023-01-27T01:57:00;95928.03;;;-2.05;100.00
71457;BME280;59263;48.160;11.752;2023-01-27T01:59:33;95950.09;;;-1.86;100.00
71457;BME280;59263;48.160;11.752;2023-01-27T02:02:02;95958.50;;;-1.86;100.00
71457;BME280;59263;48.160;11.752;2023-01-27T02:04:33;95938.06;;;-2.02;100.00
71457;BME280;59263;48.160;11.752;2023-01-27T02:07:04;95929.88;;;-2.08;100.00
71457;BME280;59263;48.160;11.752;2023-01-27T02:09:31;95922.94;;;-2.03;100.00
71457;BME280;59263;48.160;11.752;2023-01-27T02:11:57;95936.78;;;-1.91;100.00
71457;BME280;59263;48.160;11.752;2023-01-27T02:14:23;95927.09;;;-2.02;100.00
71457;BME280;59263;48.160;11.752;2023-01-27T02:16:48;95939.91;;;-2.05;100.00
71457;BME280;59263;48.160;11.752;2023-01-27T02:19:24;95945.75;;;-2.03;100.00
71457;BME280;59263;48.160;11.752;2023-01-27T02:21:53;95949.50;;;-1.93;100.00
71457;BME280;59263;48.160;11.752;2023-01-27T02:24:21;95934.31;;;-1.93;100.00
71457;BME280;59263;48.160;11.752;2023-01-27T02:26:50;95932.16;;;-2.02;100.00
71457;BME280;59263;48.160;11.752;2023-01-27T02:29:15;95937.16;;;-2.01;100.00
71457;BME280;59263;48.160;11.752;2023-01-27T02:31:41;95924.69;;;-2.05;100.00
71457;BME280;59263;48.160;11.752;2023-01-27T02:34:11;95936.75;;;-2.10;100.00
71457;BME280;59263;48.160;11.752;2023-01-27T02:36:42;95936.75;;;-2.10;100.00
71457;BME280;59263;48.160;11.752;2023-01-27T02:39:10;95931.66;;;-2.10;100.00
71457;BME280;59263;48.160;11.752;2023-01-27T02:41:44;95924.38;;;-2.18;100.00
71457;BME280;59263;48.160;11.752;2023-01-27T02:44:10;95928.63;;;-2.18;100.00
71457;BME280;59263;48.160;11.752;2023-01-27T02:46:35;95926.72;;;-2.13;100.00
71457;BME280;59263;48.160;11.752;2023-01-27T02:49:01;95931.47;;;-2.06;100.00
71457;BME280;59263;48.160;11.752;2023-01-27T02:51:26;95926.72;;;-2.13;100.00
71457;BME280;59263;48.160;11.752;2023-01-27T02:53:52;95933.31;;;-2.09;100.00
71457;BME280;59263;48.160;11.752;2023-01-27T02:56:17;95926.59;;;-2.10;100.00
71457;BME280;59263;48.160;11.752;2023-01-27T02:58:43;95919.84;;;-2.11;100.00
71457;BME280;59263;48.160;11.752;2023-01-27T03:01:09;95926.59;;;-2.10;100.00
71457;BME280;59263;48.160;11.752;2023-01-27T03:03:34;95929.06;;;-2.09;100.00
71457;BME280;59263;48.160;11.752;2023-01-27T03:06:00;95924.81;;;-2.08;100.00
71457;BME280;59263;48.160;11.752;2023-01-27T03:08:25;95922.16;;;-2.05;100.00
71457;BME280;59263;48.160;11.752;2023-01-27T03:10:52;95928.34;;;-2.12;100.00
71457;BME280;59263;48.160;11.752;2023-01-27T03:13:24;95925.09;;;-2.14;100.00
71457;BME280;59263;48.160;11.752;2023-01-27T03:15:50;95926.97;;;-2.20;100.00
71457;BME280;59263;48.160;11.752;2023-01-27T03:18:34;95917.91;;;-2.25;100.00
71457;BME280;59263;48.160;11.752;2023-01-27T03:21:02;95932.16;;;-2.23;100.00
71457;BME280;59263;48.160;11.752;2023-01-27T03:23:28;95936.28;;;-2.20;100.00
71457;BME280;59263;48.160;11.752;2023-01-27T03:25:58;95918.34;;;-2.36;100.00
71457;BME280;59263;48.160;11.752;2023-01-27T03:28:23;95922.53;;;-2.35;100.00
71457;BME280;59263;48.160;11.752;2023-01-27T03:30:48;95910.69;;;-2.34;100.00
71457;BME280;59263;48.160;11.752;2023-01-27T03:33:14;95896.50;;;-2.38;100.00
71457;BME280;59263;48.160;11.752;2023-01-27T03:35:39;95919.28;;;-2.38;100.00
71457;BME280;59263;48.160;11.752;2023-01-27T03:38:16;95918.75;;;-2.25;100.00
71457;BME280;59263;48.160;11.752;2023-01-27T03:41:03;95910.50;;;-2.30;100.00
71457;BME280;59263;48.160;11.752;2023-01-27T03:43:47;95912.16;;;-2.29;100.00
71457;BME280;59263;48.160;11.752;2023-01-27T03:46:32;95914.19;;;-2.37;100.00
71457;BME280;59263;48.160;11.752;2023-01-27T03:48:57;95908.41;;;-2.40;100.00
71457;BME280;59263;48.160;11.752;2023-01-27T03:51:24;95906.38;;;-2.32;100.00
71457;BME280;59263;48.160;11.752;2023-01-27T03:53:50;95902.88;;;-2.50;100.00
71457;BME280;59263;48.160;11.752;2023-01-27T03:56:17;95920.53;;;-2.49;100.00
71457;BME280;59263;48.160;11.752;2023-01-27T03:58:43;95909.97;;;-2.58;100.00
71457;BME280;59263;48.160;11.752;2023-01-27T04:01:27;95896.41;;;-2.57;100.00
71457;BME280;59263;48.160;11.752;2023-01-27T04:03:53;95920.44;;;-2.46;100.00
71457;BME280;59263;48.160;11.752;2023-01-27T04:06:39;95918.97;;;-2.51;100.00
71457;BME280;59263;48.160;11.752;2023-01-27T04:09:30;95914.66;;;-2.49;100.00
71457;BME280;59263;48.160;11.752;2023-01-27T04:11:57;95918.16;;;-2.52;100.00
71457;BME280;59263;48.160;11.752;2023-01-27T04:14:31;95921.25;;;-2.45;100.00
71457;BME280;59263;48.160;11.752;2023-01-27T04:17:02;95919.59;;;-2.46;100.00
71457;BME280;59263;48.160;11.752;2023-01-27T04:19:28;95921.13;;;-2.42;100.00
71457;BME280;59263;48.160;11.752;2023-01-27T04:21:54;95919.94;;;-2.33;100.00
71457;BME280;59263;48.160;11.752;2023-01-27T04:24:20;95918.22;;;-2.33;100.00
71457;BME280;59263;48.160;11.752;2023-01-27T04:26:50;95913.09;;;-2.31;100.00
71457;BME280;59263;48.160;11.752;2023-01-27T04:29:18;95913.91;;;-2.31;100.00
71457;BME280;59263;48.160;11.752;2023-01-27T04:31:43;95921.47;;;-2.29;100.00
71457;BME280;59263;48.160;11.752;2023-01-27T04:34:10;95916.72;;;-2.37;100.00
71457;BME280;59263;48.160;11.752;2023-01-27T04:36:35;95917.34;;;-2.32;100.00
71457;BME280;59263;48.160;11.752;2023-01-27T04:39:01;95913.91;;;-2.31;100.00
71457;BME280;59263;48.160;11.752;2023-01-27T04:41:26;95927.22;;;-2.26;100.00
71457;BME280;59263;48.160;11.752;2023-01-27T04:43:52;95914.19;;;-2.37;100.00
71457;BME280;59263;48.160;11.752;2023-01-27T04:46:17;95933.13;;;-2.25;100.00
71457;BME280;59263;48.160;11.752;2023-01-27T04:48:42;95921.50;;;-2.31;100.00
71457;BME280;59263;48.160;11.752;2023-01-27T04:51:08;95918.22;;;-2.33;100.00
71457;BME280;59263;48.160;11.752;2023-01-27T04:53:33;95917.34;;;-2.32;100.00
71457;BME280;59263;48.160;11.752;2023-01-27T04:56:05;95924.03;;;-2.31;100.00
71457;BME280;59263;48.160;11.752;2023-01-27T04:58:31;95929.88;;;-2.29;100.00
71457;BME280;59263;48.160;11.752;2023-01-27T05:00:56;95919.47;;;-2.43;100.00
71457;BME280;59263;48.160;11.752;2023-01-27T05:03:21;95926.19;;;-2.42;100.00
71457;BME280;59263;48.160;11.752;2023-01-27T05:05:47;95922.84;;;-2.42;100.00
71457;BME280;59263;48.160;11.752;2023-01-27T05:08:12;95917.16;;;-2.48;100.00
71457;BME280;59263;48.160;11.752;2023-01-27T05:10:37;95937.03;;;-2.38;100.00
71457;BME280;59263;48.160;11.752;2023-01-27T05:13:03;95930.00;;;-2.32;100.00
71457;BME280;59263;48.160;11.752;2023-01-27T05:15:29;95930.63;;;-2.27;100.00
71457;BME280;59263;48.160;11.752;2023-01-27T05:17:54;95923.34;;;-2.34;100.00
71457;BME280;59263;48.160;11.752;2023-01-27T05:20:20;95932.31;;;-2.26;100.00
71457;BME280;59263;48.160;11.752;2023-01-27T05:22:46;95919.25;;;-2.37;100.00
71457;BME280;59263;48.160;11.752;2023-01-27T05:25:11;95941.78;;;-2.31;100.00
71457;BME280;59263;48.160;11.752;2023-01-27T05:27:37;95921.81;;;-2.38;100.00
71457;BME280;59263;48.160;11.752;2023-01-27T05:30:02;95935.84;;;-2.30;100.00
71457;BME280;59263;48.160;11.752;2023-01-27T05:32:28;95940.34;;;-2.36;100.00
71457;BME280;59263;48.160;11.752;2023-01-27T05:34:53;95945.28;;;-2.33;100.00
71457;BME280;59263;48.160;11.752;2023-01-27T05:37:18;95940.34;;;-2.36;100.00
71457;BME280;59263;48.160;11.752;2023-01-27T05:39:43;95950.97;;;-2.28;100.00
71457;BME280;59263;48.160;11.752;2023-01-27T05:42:09;95960.03;;;-2.23;100.00
71457;BME280;59263;48.160;11.752;2023-01-27T05:44:34;95947.25;;;-2.20;100.00
71457;BME280;59263;48.160;11.752;2023-01-27T05:47:00;95953.09;;;-2.17;100.00
71457;BME280;59263;48.160;11.752;2023-01-27T05:49:25;95952.19;;;-2.16;100.00
71457;BME280;59263;48.160;11.752;2023-01-27T05:51:50;95942.94;;;-2.17;100.00
71457;BME280;59263;48.160;11.752;2023-01-27T05:54:15;95951.28;;;-2.15;100.00
71457;BME280;59263;48.160;11.752;2023-01-27T05:56:41;95961.31;;;-2.12;100.00
71457;BME280;59263;48.160;11.752;2023-01-27T05:59:06;95972.53;;;-1.98;100.00
71457;BME280;59263;48.160;11.752;2023-01-27T06:01:39;95968.44;;;-2.00;100.00
71457;BME280;59263;48.160;11.752;2023-01-27T06:04:05;95974.69;;;-2.09;100.00
71457;BME280;59263;48.160;11.752;2023-01-27T06:06:32;95971.56;;;-2.15;100.00
71457;BME280;59263;48.160;11.752;2023-01-27T06:08:58;95972.59;;;-2.20;100.00
71457;BME280;59263;48.160;11.752;2023-01-27T06:11:24;95964.84;;;-2.16;100.00
71457;BME280;59263;48.160;11.752;2023-01-27T06:13:52;95978.03;;;-2.08;100.00
71457;BME280;59263;48.160;11.752;2023-01-27T06:16:19;95973.88;;;-2.09;100.00
71457;BME280;59263;48.160;11.752;2023-01-27T06:18:46;95963.72;;;-2.09;100.00
71457;BME280;59263;48.160;11.752;2023-01-27T06:21:13;95955.34;;;-2.11;100.00
71457;BME280;59263;48.160;11.752;2023-01-27T06:23:39;95977.72;;;-2.01;100.00
71457;BME280;59263;48.160;11.752;2023-01-27T06:26:10;95972.94;;;-2.07;100.00
71457;BME280;59263;48.160;11.752;2023-01-27T06:28:37;95975.50;;;-2.08;100.00
71457;BME280;59263;48.160;11.752;2023-01-27T06:31:07;95982.25;;;-2.07;100.00
71457;BME280;59263;48.160;11.752;2023-01-27T06:33:33;95990.84;;;-2.11;100.00
71457;BME280;59263;48.160;11.752;2023-01-27T06:36:00;95989.66;;;-2.03;100.00
71457;BME280;59263;48.160;11.752;2023-01-27T06:38:26;96004.03;;;-2.03;100.00
71457;BME280;59263;48.160;11.752;2023-01-27T06:40:52;95997.44;;;-2.07;100.00
71457;BME280;59263;48.160;11.752;2023-01-27T06:43:17;95999.72;;;-2.01;100.00
71457;BME280;59263;48.160;11.752;2023-01-27T06:45:42;96003.78;;;-1.97;100.00
71457;BME280;59263;48.160;11.752;2023-01-27T06:48:08;96006.25;;;-1.96;100.00
71457;BME280;59263;48.160;11.752;2023-01-27T06:50:33;96007.19;;;-1.98;100.00
71457;BME280;59263;48.160;11.752;2023-01-27T06:53:00;95993.19;;;-2.07;100.00
71457;BME280;59263;48.160;11.752;2023-01-27T06:55:27;95989.31;;;-2.15;100.00
71457;BME280;59263;48.160;11.752;2023-01-27T06:57:52;96001.88;;;-2.12;100.00
71457;BME280;59263;48.160;11.752;2023-01-27T07:00:18;96005.06;;;-2.07;100.00
71457;BME280;59263;48.160;11.752;2023-01-27T07:02:43;96003.28;;;-2.05;100.00
71457;BME280;59263;48.160;11.752;2023-01-27T07:05:10;96000.50;;;-1.99;100.00
71457;BME280;59263;48.160;11.752;2023-01-27T07:07:35;96007.97;;;-1.96;100.00
71457;BME280;59263;48.160;11.752;2023-01-27T07:10:01;95999.78;;;-2.03;100.00
71457;BME280;59263;48.160;11.752;2023-01-27T07:12:26;95992.50;;;-2.10;100.00
71457;BME280;59263;48.160;11.752;2023-01-27T07:14:51;96000.03;;;-2.09;100.00
71457;BME280;59263;48.160;11.752;2023-01-27T07:17:16;95979.16;;;-2.15;100.00
71457;BME280;59263;48.160;11.752;2023-01-27T07:19:42;95989.97;;;-2.10;100.00
71457;BME280;59263;48.160;11.752;2023-01-27T07:22:07;95977.78;;;-2.23;100.00
71457;BME280;59263;48.160;11.752;2023-01-27T07:24:33;96003.22;;;-2.04;100.00
71457;BME280;59263;48.160;11.752;2023-01-27T07:26:58;95997.19;;;-2.01;100.00
71457;BME280;59263;48.160;11.752;2023-01-27T07:29:23;95997.31;;;-2.04;100.00
71457;BME280;59263;48.160;11.752;2023-01-27T07:31:49;95998.84;;;-2.00;100.00
71457;BME280;59263;48.160;11.752;2023-01-27T07:34:14;95992.00;;;-1.98;100.00
71457;BME280;59263;48.160;11.752;2023-01-27T07:36:39;96005.44;;;-1.96;100.00
71457;BME280;59263;48.160;11.752;2023-01-27T07:39:04;96003.53;;;-1.91;100.00
71457;BME280;59263;48.160;11.752;2023-01-27T07:41:30;95970.69;;;-2.14;100.00
71457;BME280;59263;48.160;11.752;2023-01-27T07:43:55;95983.88;;;-2.06;100.00
71457;BME280;59263;48.160;11.752;2023-01-27T07:46:21;95995.41;;;-1.99;100.00
71457;BME280;59263;48.160;11.752;2023-01-27T07:48:46;95996.94;;;-1.95;100.00
71457;BME280;59263;48.160;11.752;2023-01-27T07:51:13;96010.31;;;-1.91;100.00
71457;BME280;59263;48.160;11.752;2023-01-27T07:53:39;95991.25;;;-2.00;100.00
71457;BME280;59263;48.160;11.752;2023-01-27T07:56:05;95985.47;;;-2.04;100.00
71457;BME280;59263;48.160;11.752;2023-01-27T07:58:30;96002.53;;;-1.87;100.00
71457;BME280;59263;48.160;11.752;2023-01-27T08:00:55;96004.72;;;-1.79;100.00
71457;BME280;59263;48.160;11.752;2023-01-27T08:03:23;95994.78;;;-1.84;100.00
71457;BME280;59263;48.160;11.752;2023-01-27T08:05:48;95987.81;;;-1.79;100.00
71457;BME280;59263;48.160;11.752;2023-01-27T08:08:14;96009.38;;;-1.68;100.00
71457;BME280;59263;48.160;11.752;2023-01-27T08:10:40;96009.16;;;-1.64;100.00
71457;BME280;59263;48.160;11.752;2023-01-27T08:13:05;95983.13;;;-1.88;100.00
71457;BME280;59263;48.160;11.752;2023-01-27T08:15:31;96000.81;;;-1.86;100.00
71457;BME280;59263;48.160;11.752;2023-01-27T08:17:57;96007.66;;;-1.88;100.00
71457;BME280;59263;48.160;11.752;2023-01-27T08:20:25;96006.56;;;-1.83;100.00
71457;BME280;59263;48.160;11.752;2023-01-27T08:22:51;96009.75;;;-1.78;100.00
71457;BME280;59263;48.160;11.752;2023-01-27T08:25:17;96018.69;;;-1.69;100.00
71457;BME280;59263;48.160;11.752;2023-01-27T08:27:42;96017.09;;;-1.72;100.00
71457;BME280;59263;48.160;11.752;2023-01-27T08:30:08;96020.53;;;-1.73;100.00
71457;BME280;59263;48.160;11.752;2023-01-27T08:32:34;96031.19;;;-1.64;100.00
71457;BME280;59263;48.160;11.752;2023-01-27T08:34:59;96024.09;;;-1.77;100.00
71457;BME280;59263;48.160;11.752;2023-01-27T08:37:25;96029.28;;;-1.80;100.00
71457;BME280;59263;48.160;11.752;2023-01-27T08:39:50;96017.84;;;-1.90;100.00
71457;BME280;59263;48.160;11.752;2023-01-27T08:42:16;96020.97;;;-1.83;100.00
71457;BME280;59263;48.160;11.752;2023-01-27T08:44:41;96041.13;;;-1.80;100.00
71457;BME280;59263;48.160;11.752;2023-01-27T08:47:06;96035.38;;;-1.84;100.00
71457;BME280;59263;48.160;11.752;2023-01-27T08:49:32;96037.13;;;-1.86;100.00
71457;BME280;59263;48.160;11.752;2023-01-27T08:51:57;96048.94;;;-1.85;100.00
71457;BME280;59263;48.160;11.752;2023-01-27T08:54:22;96035.69;;;-1.91;100.00
71457;BME280;59263;48.160;11.752;2023-01-27T08:56:47;96050.69;;;-1.87;100.00
71457;BME280;59263;48.160;11.752;2023-01-27T08:59:13;96035.72;;;-1.93;100.00
71457;BME280;59263;48.160;11.752;2023-01-27T09:01:38;96041.56;;;-1.91;100.00
71457;BME280;59263;48.160;11.752;2023-01-27T09:04:06;96049.16;;;-1.91;100.00
71457;BME280;59263;48.160;11.752;2023-01-27T09:06:31;96040.19;;;-1.78;100.00
71457;BME280;59263;48.160;11.752;2023-01-27T09:08:56;96032.06;;;-1.86;100.00
71457;BME280;59263;48.160;11.752;2023-01-27T09:11:35;96058.34;;;-1.66;100.00
71457;BME280;59263;48.160;11.752;2023-01-27T09:14:02;96037.66;;;-1.78;100.00
71457;BME280;59263;48.160;11.752;2023-01-27T09:16:29;96043.97;;;-1.67;100.00
71457;BME280;59263;48.160;11.752;2023-01-27T09:18:54;96043.81;;;-1.63;100.00
71457;BME280;59263;48.160;11.752;2023-01-27T09:21:21;96048.94;;;-1.44;100.00
71457;BME280;59263;48.160;11.752;2023-01-27T09:23:47;96056.91;;;-1.33;100.00
71457;BME280;59263;48.160;11.752;2023-01-27T09:26:13;96062.00;;;-1.33;100.00
71457;BME280;59263;48.160;11.752;2023-01-27T09:28:39;96045.63;;;-1.46;100.00
71457;BME280;59263;48.160;11.752;2023-01-27T09:31:04;96059.56;;;-1.56;100.00
71457;BME280;59263;48.160;11.752;2023-01-27T09:33:29;96067.25;;;-1.58;100.00
71457;BME280;59263;48.160;11.752;2023-01-27T09:36:00;96069.19;;;-1.63;100.00
71457;BME280;59263;48.160;11.752;2023-01-27T09:38:29;96077.50;;;-1.59;100.00
71457;BME280;59263;48.160;11.752;2023-01-27T09:54:47;96084.81;;;-1.53;100.00
71457;BME280;59263;48.160;11.752;2023-01-27T10:05:48;96089.78;;;-1.50;100.00
71457;BME280;59263;48.160;11.752;2023-01-27T10:08:30;96088.13;;;-1.51;100.00
71457;BME280;59263;48.160;11.752;2023-01-27T10:11:33;96097.25;;;-1.27;100.00
71457;BME280;59263;48.160;11.752;2023-01-27T10:14:59;96072.53;;;-1.42;100.00
71457;BME280;59263;48.160;11.752;2023-01-27T10:20:02;96086.72;;;-1.17;100.00
71457;BME280;59263;48.160;11.752;2023-01-27T10:22:51;96079.47;;;-1.06;100.00
71457;BME280;59263;48.160;11.752;2023-01-27T10:28:20;96095.00;;;-0.93;100.00
71457;BME280;59263;48.160;11.752;2023-01-27T10:30:59;96098.19;;;-0.88;100.00
71457;BME280;59263;48.160;11.752;2023-01-27T10:33:42;96067.03;;;-1.12;100.00
71457;BME280;59263;48.160;11.752;2023-01-27T10:36:21;96103.78;;;-0.82;100.00
71457;BME280;59263;48.160;11.752;2023-01-27T10:38:53;96106.53;;;-0.86;100.00
71457;BME280;59263;48.160;11.752;2023-01-27T10:41:43;96104.22;;;-0.91;100.00
71457;BME280;59263;48.160;11.752;2023-01-27T10:44:47;96106.25;;;-0.99;100.00
71457;BME280;59263;48.160;11.752;2023-01-27T10:47:32;96112.47;;;-1.06;100.00
71457;BME280;59263;48.160;11.752;2023-01-27T10:50:08;96103.47;;;-1.13;100.00
71457;BME280;59263;48.160;11.752;2023-01-27T10:52:43;96109.81;;;-1.03;100.00
71457;BME280;59263;48.160;11.752;2023-01-27T10:55:38;96100.53;;;-1.04;100.00
71457;BME280;59263;48.160;11.752;2023-01-27T11:01:10;96099.66;;;-1.24;100.00
71457;BME280;59263;48.160;11.752;2023-01-27T11:03:43;96107.81;;;-1.36;100.00
71457;BME280;59263;48.160;11.752;2023-01-27T11:06:20;96107.16;;;-1.41;100.00
71457;BME280;59263;48.160;11.752;2023-01-27T11:08:54;96104.25;;;-1.32;100.00
71457;BME280;59263;48.160;11.752;2023-01-27T11:11:24;96097.00;;;-1.41;100.00
71457;BME280;59263;48.160;11.752;2023-01-27T11:16:46;96111.38;;;-1.40;100.00
71457;BME280;59263;48.160;11.752;2023-01-27T11:21:49;96075.34;;;-1.48;100.00
71457;BME280;59263;48.160;11.752;2023-01-27T11:24:22;96094.22;;;-1.35;100.00
71457;BME280;59263;48.160;11.752;2023-01-27T11:27:01;96091.19;;;-1.43;100.00
71457;BME280;59263;48.160;11.752;2023-01-27T11:29:40;96094.09;;;-1.32;100.00
71457;BME280;59263;48.160;11.752;2023-01-27T11:32:17;96102.59;;;-1.33;100.00
71457;BME280;59263;48.160;11.752;2023-01-27T11:37:37;96094.34;;;-1.38;100.00
71457;BME280;59263;48.160;11.752;2023-01-27T11:40:13;96077.88;;;-1.48;100.00
71457;BME280;59263;48.160;11.752;2023-01-27T11:42:39;96086.41;;;-1.30;100.00
71457;BME280;59263;48.160;11.752;2023-01-27T11:45:06;96078.22;;;-1.16;100.00
71457;BME280;59263;48.160;11.752;2023-01-27T11:47:37;96071.84;;;-1.06;100.00
71457;BME280;59263;48.160;11.752;2023-01-27T11:50:05;96058.84;;;-1.19;100.00
71457;BME280;59263;48.160;11.752;2023-01-27T11:52:32;96084.31;;;-1.20;100.00
71457;BME280;59263;48.160;11.752;2023-01-27T12:00:32;96076.81;;;-1.24;100.00
71457;BME280;59263;48.160;11.752;2023-01-27T12:06:04;96081.44;;;-1.13;100.00
71457;BME280;59263;48.160;11.752;2023-01-27T12:08:40;96079.22;;;-1.00;100.00
71457;BME280;59263;48.160;11.752;2023-01-27T12:11:23;96087.72;;;-1.01;100.00
71457;BME280;59263;48.160;11.752;2023-01-27T12:13:56;96080.88;;;-0.99;100.00
71457;BME280;59263;48.160;11.752;2023-01-27T12:16:26;96091.28;;;-1.05;100.00
71457;BME280;59263;48.160;11.752;2023-01-27T12:19:01;96083.78;;;-1.08;100.00
71457;BME280;59263;48.160;11.752;2023-01-27T12:21:46;96084.34;;;-1.02;100.00
71457;BME280;59263;48.160;11.752;2023-01-27T12:24:23;96075.38;;;-0.90;100.00
71457;BME280;59263;48.160;11.752;2023-01-27T12:26:51;96081.09;;;-0.85;100.00
71457;BME280;59263;48.160;11.752;2023-01-27T12:29:19;96076.06;;;-0.86;100.00
71457;BME280;59263;48.160;11.752;2023-01-27T12:31:48;96067.53;;;-1.04;100.00
71457;BME280;59263;48.160;11.752;2023-01-27T12:34:28;96076.84;;;-1.05;100.00
71457;BME280;59263;48.160;11.752;2023-01-27T12:36:55;96076.59;;;-0.99;100.00
71457;BME280;59263;48.160;11.752;2023-01-27T12:39:32;96068.22;;;-1.01;100.00
71457;BME280;59263;48.160;11.752;2023-01-27T12:41:59;96070.59;;;-1.16;100.00
71457;BME280;59263;48.160;11.752;2023-01-27T12:44:25;96082.28;;;-1.12;100.00
71457;BME280;59263;48.160;11.752;2023-01-27T12:47:23;96074.78;;;-1.15;100.00
71457;BME280;59263;48.160;11.752;2023-01-27T12:49:49;96042.75;;;-1.38;100.00
71457;BME280;59263;48.160;11.752;2023-01-27T12:52:19;96064.25;;;-1.27;100.00
71457;BME280;59263;48.160;11.752;2023-01-27T12:54:45;96061.34;;;-1.17;100.00
71457;BME280;59263;48.160;11.752;2023-01-27T12:57:14;96075.28;;;-1.07;100.00
71457;BME280;59263;48.160;11.752;2023-01-27T12:59:47;96077.28;;;-1.14;100.00
71457;BME280;59263;48.160;11.752;2023-01-27T13:02:18;96064.94;;;-1.03;100.00
71457;BME280;59263;48.160;11.752;2023-01-27T13:04:50;96049.41;;;-0.97;100.00
71457;BME280;59263;48.160;11.752;2023-01-27T13:07:19;96057.34;;;-0.84;100.00
71457;BME280;59263;48.160;11.752;2023-01-27T13:09:50;96048.47;;;-0.75;100.00
71457;BME280;59263;48.160;11.752;2023-01-27T13:12:25;96053.06;;;-0.64;100.00
71457;BME280;59263;48.160;11.752;2023-01-27T13:15:04;96042.19;;;-0.85;100.00
71457;BME280;59263;48.160;11.752;2023-01-27T13:17:40;96057.00;;;-0.76;100.00
71457;BME280;59263;48.160;11.752;2023-01-27T13:20:27;96048.34;;;-0.91;100.00
71457;BME280;59263;48.160;11.752;2023-01-27T13:23:01;96062.41;;;-0.84;100.00
71457;BME280;59263;48.160;11.752;2023-01-27T13:25:33;96052.72;;;-0.76;100.00
71457;BME280;59263;48.160;11.752;2023-01-27T13:28:01;96055.63;;;-0.64;100.00
71457;BME280;59263;48.160;11.752;2023-01-27T13:30:33;96031.84;;;-0.63;100.00
71457;BME280;59263;48.160;11.752;2023-01-27T13:33:29;96055.09;;;-0.35;100.00
71457;BME280;59263;48.160;11.752;2023-01-27T13:36:04;96063.63;;;-0.36;100.00
71457;BME280;59263;48.160;11.752;2023-01-27T13:38:41;96049.56;;;-0.43;100.00